createdAt,value
2023-04-17T00:01:25.148Z,21.80
2023-04-17T00:03:53.084Z,21.90
2023-04-17T00:06:19.736Z,22.58
2023-04-17T00:08:46.174Z,21.98
2023-04-17T00:11:12.796Z,23.33
2023-04-17T00:13:39.254Z,20.58
2023-04-17T00:16:06.232Z,21.67
2023-04-17T00:18:32.746Z,21.65
2023-04-17T00:20:59.192Z,20.98
2023-04-17T00:23:25.868Z,21.13
2023-04-17T00:25:52.327Z,22.30
2023-04-17T00:28:19.319Z,22.42
2023-04-17T00:30:46.647Z,22.63
2023-04-17T00:33:13.303Z,21.52
2023-04-17T00:35:39.916Z,23.98
2023-04-17T00:38:09.003Z,21.05
2023-04-17T00:40:35.890Z,20.80
2023-04-17T00:43:03.056Z,22.92
2023-04-17T00:45:30.789Z,21.65
2023-04-17T00:47:59.146Z,21.08
2023-04-17T00:50:27.518Z,23.13
2023-04-17T00:52:54.756Z,19.42
2023-04-17T00:55:21.651Z,22.40
2023-04-17T00:57:49.350Z,19.75
2023-04-17T01:00:17.997Z,20.67
2023-04-17T01:02:45.599Z,22.07
2023-04-17T01:05:12.405Z,20.42
2023-04-17T01:07:39.411Z,20.38
2023-04-17T01:10:06.517Z,22.98
2023-04-17T01:12:33.276Z,20.63
2023-04-17T01:14:59.974Z,20.42
2023-04-17T01:17:30.032Z,20.58
2023-04-17T01:19:57.399Z,20.95
2023-04-17T01:22:24.849Z,21.23
2023-04-17T01:24:55.895Z,20.75
2023-04-17T01:27:24.943Z,21.05
2023-04-17T01:29:51.518Z,24.25
2023-04-17T01:32:20.166Z,19.73
2023-04-17T01:34:49.719Z,22.98
2023-04-17T01:37:16.226Z,21.83
2023-04-17T01:39:42.794Z,24.02
2023-04-17T01:42:09.332Z,21.08
2023-04-17T01:44:37.451Z,21.05
2023-04-17T01:47:04.072Z,24.35
2023-04-17T01:49:30.571Z,22.95
2023-04-17T01:52:00.188Z,21.58
2023-04-17T01:56:57.010Z,21.85
2023-04-17T01:59:24.050Z,22.70
2023-04-17T02:01:52.750Z,21.55
2023-04-17T02:04:19.365Z,25.75
2023-04-17T02:06:46.097Z,24.02
2023-04-17T02:09:12.785Z,21.50
2023-04-17T02:11:42.204Z,22.02
2023-04-17T02:14:08.670Z,23.67
2023-04-17T02:16:35.206Z,24.55
2023-04-17T02:19:01.686Z,24.33
2023-04-17T02:21:31.060Z,24.90
2023-04-17T02:23:57.499Z,22.95
2023-04-17T02:26:27.896Z,24.23
2023-04-17T02:28:54.431Z,22.83
2023-04-17T02:31:21.314Z,22.58
2023-04-17T02:33:48.410Z,22.92
2023-04-17T02:36:16.140Z,25.15
2023-04-17T02:38:44.196Z,23.20
2023-04-17T02:41:12.943Z,23.15
2023-04-17T02:43:40.264Z,23.20
2023-04-17T02:46:06.809Z,23.55
2023-04-17T02:48:33.356Z,20.55
2023-04-17T02:50:59.864Z,21.65
2023-04-17T02:53:27.479Z,19.20
2023-04-17T02:55:54.053Z,18.08
2023-04-17T02:58:22.986Z,19.13
2023-04-17T03:00:49.484Z,20.80
2023-04-17T03:03:18.072Z,21.60
2023-04-17T03:05:44.870Z,19.08
2023-04-17T03:08:11.721Z,19.05
2023-04-17T03:10:46.045Z,19.63
2023-04-17T03:13:12.601Z,20.52
2023-04-17T03:15:39.070Z,20.88
2023-04-17T03:18:05.747Z,21.40
2023-04-17T03:20:32.342Z,21.40
2023-04-17T03:22:58.810Z,22.38
2023-04-17T03:25:25.732Z,22.25
2023-04-17T03:27:52.847Z,24.02
2023-04-17T03:30:21.924Z,21.75
2023-04-17T03:32:51.251Z,22.40
2023-04-17T03:35:17.741Z,23.50
2023-04-17T03:37:44.339Z,21.80
2023-04-17T03:40:12.655Z,23.70
2023-04-17T03:42:39.187Z,22.83
2023-04-17T03:45:06.248Z,22.23
2023-04-17T03:47:33.710Z,22.50
2023-04-17T03:50:00.627Z,24.17
2023-04-17T03:52:31.737Z,22.33
2023-04-17T03:54:58.969Z,22.85
2023-04-17T03:57:26.314Z,23.60
2023-04-17T03:59:53.422Z,21.45
2023-04-17T04:02:20.645Z,30.63
2023-04-17T04:04:50.316Z,22.63
2023-04-17T04:07:16.991Z,22.25
2023-04-17T04:09:44.578Z,22.63
2023-04-17T04:12:11.329Z,22.35
2023-04-17T04:17:09.053Z,20.30
2023-04-17T04:19:35.882Z,19.98
2023-04-17T04:22:03.726Z,21.10
2023-04-17T04:24:40.335Z,20.83
2023-04-17T04:27:07.142Z,21.90
2023-04-17T04:29:37.621Z,20.50
2023-04-17T04:32:09.597Z,21.00
2023-04-17T04:34:41.888Z,21.08
2023-04-17T04:37:08.473Z,20.73
2023-04-17T04:39:41.818Z,21.50
2023-04-17T04:42:12.092Z,20.50
2023-04-17T04:45:05.588Z,19.38
2023-04-17T04:47:33.195Z,22.08
2023-04-17T04:49:59.880Z,25.73
2023-04-17T04:52:29.296Z,25.00
2023-04-17T04:54:59.280Z,23.48
2023-04-17T04:57:27.012Z,23.88
2023-04-17T04:59:58.164Z,22.77
2023-04-17T05:02:31.683Z,26.65
2023-04-17T05:04:58.955Z,24.60
2023-04-17T05:07:25.990Z,25.77
2023-04-17T05:09:53.085Z,25.55
2023-04-17T05:12:20.157Z,23.38
2023-04-17T05:14:47.827Z,24.17
2023-04-17T05:17:14.493Z,22.75
2023-04-17T05:19:40.971Z,23.27
2023-04-17T05:22:09.538Z,23.67
2023-04-17T05:24:44.427Z,21.55
2023-04-17T05:27:10.941Z,23.42
2023-04-17T05:29:37.692Z,24.27
2023-04-17T05:32:04.520Z,22.60
2023-04-17T05:34:48.833Z,23.10
2023-04-17T05:37:18.198Z,25.52
2023-04-17T05:39:44.709Z,23.52
2023-04-17T05:42:11.251Z,26.55
2023-04-17T05:44:39.240Z,23.83
2023-04-17T05:47:06.089Z,28.38
2023-04-17T05:49:32.604Z,27.27
2023-04-17T05:51:59.203Z,27.38
2023-04-17T05:54:27.953Z,28.90
2023-04-17T05:56:54.605Z,28.47
2023-04-17T05:59:21.101Z,30.25
2023-04-17T06:01:48.633Z,29.42
2023-04-17T06:04:19.338Z,28.58
2023-04-17T06:06:47.697Z,28.60
2023-04-17T06:09:15.837Z,27.58
2023-04-17T06:11:42.371Z,29.75
2023-04-17T06:14:08.972Z,27.08
2023-04-17T06:16:36.503Z,27.08
2023-04-17T06:19:03.095Z,26.30
2023-04-17T06:21:29.654Z,27.95
2023-04-17T06:23:59.754Z,26.67
2023-04-17T06:26:26.246Z,28.55
2023-04-17T06:28:52.759Z,29.92
2023-04-17T06:31:19.369Z,29.73
2023-04-17T06:33:49.737Z,27.73
2023-04-17T06:36:18.050Z,26.55
2023-04-17T06:38:54.895Z,25.90
2023-04-17T06:41:22.365Z,27.40
2023-04-17T06:43:48.858Z,29.13
2023-04-17T06:46:15.509Z,24.17
2023-04-17T06:48:42.000Z,27.60
2023-04-17T06:51:08.589Z,27.83
2023-04-17T06:53:35.159Z,28.35
2023-04-17T06:56:01.735Z,27.88
2023-04-17T06:58:28.296Z,30.08
2023-04-17T07:00:54.742Z,27.35
2023-04-17T07:03:21.386Z,27.52
2023-04-17T07:05:48.821Z,26.52
2023-04-17T07:08:15.902Z,27.58
2023-04-17T07:10:42.582Z,26.33
2023-04-17T07:13:09.040Z,29.27
2023-04-17T07:15:35.717Z,26.17
2023-04-17T07:18:02.520Z,28.70
2023-04-17T07:20:29.085Z,27.23
2023-04-17T07:22:56.642Z,25.65
2023-04-17T07:25:23.259Z,27.40
2023-04-17T07:27:51.229Z,26.38
2023-04-17T07:30:17.697Z,27.33
2023-04-17T07:32:44.275Z,22.92
2023-04-17T07:35:10.853Z,23.90
2023-04-17T07:37:37.412Z,22.35
2023-04-17T07:40:05.700Z,21.70
2023-04-17T07:42:32.226Z,25.05
2023-04-17T07:44:58.765Z,21.42
2023-04-17T07:47:25.534Z,23.48
2023-04-17T07:49:52.147Z,21.50
2023-04-17T07:52:18.805Z,22.73
2023-04-17T07:54:45.605Z,21.90
2023-04-17T07:57:12.333Z,21.30
2023-04-17T07:59:38.893Z,20.42
2023-04-17T08:02:05.850Z,20.63
2023-04-17T08:04:33.215Z,19.30
2023-04-17T08:07:00.061Z,20.83
2023-04-17T08:11:57.861Z,18.85
2023-04-17T08:14:25.035Z,19.52
2023-04-17T08:16:51.739Z,21.60
2023-04-17T08:19:18.503Z,16.90
2023-04-17T08:21:47.385Z,19.55
2023-04-17T08:24:13.957Z,16.60
2023-04-17T08:26:40.676Z,17.40
2023-04-17T08:29:08.114Z,14.60
2023-04-17T08:31:36.752Z,14.57
2023-04-17T08:34:13.519Z,15.33
2023-04-17T08:36:42.709Z,14.70
2023-04-17T08:39:12.017Z,15.75
2023-04-17T08:41:44.227Z,13.32
2023-04-17T08:44:11.006Z,15.07
2023-04-17T08:46:38.184Z,14.32
2023-04-17T08:49:04.897Z,13.65
2023-04-17T08:51:32.696Z,12.93
2023-04-17T08:53:59.214Z,12.82
2023-04-17T08:56:25.722Z,13.95
2023-04-17T08:58:52.323Z,13.63
2023-04-17T09:01:20.667Z,14.30
2023-04-17T09:03:48.926Z,13.77
2023-04-17T09:06:16.282Z,13.55
2023-04-17T09:08:58.555Z,12.10
2023-04-17T09:11:25.945Z,15.05
2023-04-17T09:13:52.738Z,15.73
2023-04-17T09:16:20.267Z,13.98
2023-04-17T09:18:47.513Z,13.18
2023-04-17T09:21:16.618Z,13.98
2023-04-17T09:23:48.731Z,13.40
2023-04-17T09:26:20.895Z,14.57
2023-04-17T09:29:09.046Z,13.77
2023-04-17T09:31:37.476Z,13.73
2023-04-17T09:34:07.453Z,13.83
2023-04-17T09:36:36.834Z,17.35
2023-04-17T09:41:32.613Z,12.77
2023-04-17T09:44:06.588Z,11.15
2023-04-17T09:46:45.764Z,12.45
2023-04-17T09:49:15.588Z,13.45
2023-04-17T09:51:42.325Z,11.35
2023-04-17T09:54:11.393Z,11.73
2023-04-17T09:56:38.808Z,10.30
2023-04-17T09:59:06.581Z,9.48
2023-04-17T10:01:34.912Z,10.70
2023-04-17T10:04:03.206Z,11.13
2023-04-17T10:06:33.975Z,11.17
2023-04-17T10:09:00.847Z,11.07
2023-04-17T10:11:35.644Z,10.52
2023-04-17T10:14:12.211Z,10.40
2023-04-17T10:16:40.564Z,11.48
2023-04-17T10:19:27.927Z,10.45
2023-04-17T10:22:17.874Z,10.50
2023-04-17T10:25:13.203Z,9.27
2023-04-17T10:27:42.568Z,10.65
2023-04-17T10:30:12.725Z,9.02
2023-04-17T10:32:45.233Z,9.23
2023-04-17T10:35:17.848Z,9.50
2023-04-17T10:37:47.386Z,9.10
2023-04-17T10:40:33.891Z,8.85
2023-04-17T10:43:13.926Z,9.10
2023-04-17T10:45:59.791Z,10.52
2023-04-17T10:48:49.759Z,8.65
2023-04-17T10:51:28.983Z,8.90
2023-04-17T10:53:56.470Z,8.65
2023-04-17T10:56:27.608Z,8.40
2023-04-17T10:59:02.401Z,8.88
2023-04-17T11:01:32.763Z,7.88
2023-04-17T11:03:59.840Z,9.13
2023-04-17T11:06:28.863Z,8.93
2023-04-17T11:09:10.337Z,11.93
2023-04-17T11:11:44.538Z,9.43
2023-04-17T11:14:14.866Z,9.90
2023-04-17T11:16:43.077Z,8.50
2023-04-17T11:19:11.560Z,8.52
2023-04-17T11:21:39.963Z,8.90
2023-04-17T11:24:06.617Z,9.52
2023-04-17T11:26:44.380Z,8.30
2023-04-17T11:29:15.112Z,9.77
2023-04-17T11:31:41.681Z,10.77
2023-04-17T11:34:09.668Z,9.30
2023-04-17T11:36:36.138Z,10.38
2023-04-17T11:39:02.978Z,12.07
2023-04-17T11:41:39.529Z,12.20
2023-04-17T11:44:09.997Z,10.55
2023-04-17T11:46:36.946Z,14.38
2023-04-17T11:49:07.112Z,9.13
2023-04-17T11:51:33.705Z,9.25
2023-04-17T11:54:00.253Z,11.48
2023-04-17T11:56:31.036Z,10.45
2023-04-17T11:58:59.292Z,10.88
2023-04-17T12:01:28.886Z,9.65
2023-04-17T12:03:57.225Z,10.60
2023-04-17T12:06:24.902Z,9.87
2023-04-17T12:08:53.747Z,11.60
2023-04-17T12:11:27.207Z,10.85
2023-04-17T12:13:54.539Z,12.68
2023-04-17T12:16:21.734Z,10.02
2023-04-17T12:18:48.729Z,10.18
2023-04-17T12:21:15.479Z,11.95
2023-04-17T12:23:42.778Z,11.15
2023-04-17T12:26:10.034Z,12.13
2023-04-17T12:28:36.853Z,11.52
2023-04-17T12:31:04.709Z,10.50
2023-04-17T12:33:32.224Z,10.85
2023-04-17T12:36:00.265Z,10.13
2023-04-17T12:38:27.145Z,10.23
2023-04-17T12:40:54.292Z,10.10
2023-04-17T12:43:22.260Z,9.00
2023-04-17T12:45:49.104Z,11.32
2023-04-17T12:48:15.974Z,9.48
2023-04-17T12:50:43.849Z,7.95
2023-04-17T12:53:13.133Z,7.90
2023-04-17T12:55:44.163Z,6.90
2023-04-17T12:58:12.199Z,7.78
2023-04-17T13:00:40.626Z,6.72
2023-04-17T13:03:07.589Z,6.53
2023-04-17T13:05:34.480Z,7.03
2023-04-17T13:08:01.170Z,6.72
2023-04-17T13:10:28.018Z,6.63
2023-04-17T13:12:54.701Z,6.80
2023-04-17T13:15:21.759Z,7.75
2023-04-17T13:17:48.537Z,7.68
2023-04-17T13:20:15.331Z,6.65
2023-04-17T13:22:41.946Z,7.88
2023-04-17T13:25:08.981Z,7.20
2023-04-17T13:27:35.645Z,6.70
2023-04-17T13:30:02.208Z,8.85
2023-04-17T13:32:28.797Z,8.05
2023-04-17T13:34:57.398Z,7.80
2023-04-17T13:37:25.812Z,8.85
2023-04-17T13:39:52.704Z,7.22
2023-04-17T13:42:20.317Z,7.75
2023-04-17T13:44:46.934Z,6.97
2023-04-17T13:47:13.694Z,7.82
2023-04-17T13:49:40.180Z,6.07
2023-04-17T13:52:07.389Z,6.53
2023-04-17T13:54:33.997Z,6.35
2023-04-17T13:57:01.191Z,6.07
2023-04-17T13:59:27.939Z,5.80
2023-04-17T14:01:54.604Z,6.43
2023-04-17T14:04:21.586Z,6.22
2023-04-17T14:06:50.340Z,7.30
2023-04-17T14:09:17.470Z,9.38
2023-04-17T14:11:44.065Z,7.60
2023-04-17T14:14:12.670Z,8.88
2023-04-17T14:16:40.370Z,7.35
2023-04-17T14:19:13.948Z,6.70
2023-04-17T14:21:41.368Z,9.50
2023-04-17T14:24:08.081Z,8.07
2023-04-17T14:26:34.769Z,8.25
2023-04-17T14:29:01.471Z,7.95
2023-04-17T14:31:28.114Z,7.63
2023-04-17T14:33:54.771Z,10.18
2023-04-17T14:36:21.275Z,7.05
2023-04-17T14:38:51.084Z,8.15
2023-04-17T14:41:17.742Z,8.10
2023-04-17T14:43:44.818Z,7.72
2023-04-17T14:46:11.419Z,9.13
2023-04-17T14:48:47.977Z,8.35
2023-04-17T14:53:48.708Z,8.45
2023-04-17T14:56:15.858Z,6.90
2023-04-17T14:58:43.184Z,8.90
2023-04-17T15:01:09.807Z,6.75
2023-04-17T15:03:36.555Z,6.13
2023-04-17T15:06:03.544Z,7.07
2023-04-17T15:08:32.808Z,7.15
2023-04-17T15:10:59.295Z,7.28
2023-04-17T15:13:25.739Z,7.47
2023-04-17T15:15:52.307Z,6.90
2023-04-17T15:18:18.756Z,5.72
2023-04-17T15:20:46.254Z,5.75
2023-04-17T15:23:13.003Z,5.43
2023-04-17T15:25:39.743Z,4.95
2023-04-17T15:28:06.377Z,6.10
2023-04-17T15:30:33.019Z,6.28
2023-04-17T15:32:59.539Z,6.10
2023-04-17T15:35:26.167Z,5.93
2023-04-17T15:37:52.743Z,7.53
2023-04-17T15:40:19.223Z,6.07
2023-04-17T15:42:45.811Z,5.60
2023-04-17T15:45:12.403Z,6.20
2023-04-17T15:47:38.997Z,5.05
2023-04-17T15:50:06.168Z,5.60
2023-04-17T15:52:32.695Z,7.38
2023-04-17T15:54:59.192Z,5.45
2023-04-17T15:57:25.844Z,4.93
2023-04-17T15:59:52.357Z,5.75
2023-04-17T16:02:19.014Z,5.25
2023-04-17T16:04:45.816Z,5.22
2023-04-17T16:07:13.170Z,5.50
2023-04-17T16:09:40.205Z,5.18
2023-04-17T16:12:08.821Z,4.57
2023-04-17T16:14:36.420Z,4.67
2023-04-17T16:17:03.541Z,4.30
2023-04-17T16:19:30.593Z,4.93
2023-04-17T16:21:57.577Z,5.35
2023-04-17T16:24:24.725Z,5.40
2023-04-17T16:27:00.184Z,5.18
2023-04-17T16:29:27.586Z,4.10
2023-04-17T16:31:54.741Z,5.50
2023-04-17T16:34:21.460Z,3.85
2023-04-17T16:36:48.441Z,5.72
2023-04-17T16:39:15.037Z,4.05
2023-04-17T16:41:41.996Z,4.20
2023-04-17T16:44:08.517Z,4.13
2023-04-17T16:46:48.350Z,4.35
2023-04-17T16:49:21.920Z,4.25
2023-04-17T16:51:48.476Z,4.45
2023-04-17T16:54:15.270Z,4.60
2023-04-17T16:56:42.704Z,4.90
2023-04-17T16:59:09.238Z,4.40
2023-04-17T17:01:35.782Z,6.70
2023-04-17T17:04:02.471Z,6.93
2023-04-17T17:06:29.656Z,4.43
2023-04-17T17:08:56.243Z,4.70
2023-04-17T17:11:22.897Z,4.45
2023-04-17T17:13:50.085Z,4.82
2023-04-17T17:16:18.193Z,5.15
2023-04-17T17:18:45.285Z,4.17
2023-04-17T17:21:12.018Z,4.38
2023-04-17T17:23:38.680Z,5.97
2023-04-17T17:26:05.813Z,4.07
2023-04-17T17:28:32.840Z,4.72
2023-04-17T17:31:03.881Z,4.00
2023-04-17T17:33:32.246Z,3.97
2023-04-17T17:35:59.511Z,4.07
2023-04-17T17:38:32.493Z,3.80
2023-04-17T17:40:59.348Z,4.95
2023-04-17T17:43:28.122Z,3.95
2023-04-17T17:45:54.776Z,4.43
2023-04-17T17:48:21.457Z,4.20
2023-04-17T17:50:48.070Z,4.30
2023-04-17T17:53:16.895Z,3.90
2023-04-17T17:55:50.620Z,4.45
2023-04-17T17:58:37.541Z,4.13
2023-04-17T18:01:04.346Z,5.35
2023-04-17T18:03:31.221Z,4.45
2023-04-17T18:05:57.986Z,3.90
2023-04-17T18:08:25.086Z,4.15
2023-04-17T18:10:51.663Z,4.72
2023-04-17T18:13:18.215Z,5.20
2023-04-17T18:15:45.022Z,4.85
2023-04-17T18:18:11.675Z,4.78
2023-04-17T18:20:39.462Z,4.28
2023-04-17T18:23:06.608Z,4.53
2023-04-17T18:25:35.612Z,5.07
2023-04-17T18:28:05.317Z,5.85
2023-04-17T18:30:32.378Z,4.95
2023-04-17T18:32:59.231Z,6.38
2023-04-17T18:35:26.617Z,5.03
2023-04-17T18:37:53.539Z,5.93
2023-04-17T18:40:20.373Z,5.22
2023-04-17T18:42:46.945Z,6.68
2023-04-17T18:45:15.968Z,4.82
2023-04-17T18:47:43.026Z,4.70
2023-04-17T18:50:11.162Z,5.68
2023-04-17T18:52:40.266Z,5.30
2023-04-17T18:55:08.036Z,6.85
2023-04-17T18:57:34.799Z,7.20
2023-04-17T19:00:01.480Z,6.03
2023-04-17T19:02:28.265Z,6.43
2023-04-17T19:04:56.365Z,6.65
2023-04-17T19:07:23.185Z,7.03
2023-04-17T19:09:49.780Z,7.43
2023-04-17T19:12:16.693Z,7.03
2023-04-17T19:14:43.396Z,6.85
2023-04-17T19:17:10.012Z,7.25
2023-04-17T19:19:36.644Z,7.00
2023-04-17T19:22:03.273Z,7.80
2023-04-17T19:24:29.861Z,6.85
2023-04-17T19:26:57.677Z,8.57
2023-04-17T19:29:24.614Z,7.25
2023-04-17T19:31:51.343Z,7.53
2023-04-17T19:34:17.956Z,11.65
2023-04-17T19:36:44.743Z,15.02
2023-04-17T19:39:11.652Z,20.15
2023-04-17T19:41:38.324Z,13.05
2023-04-17T19:44:05.058Z,10.70
2023-04-17T19:46:31.833Z,10.23
2023-04-17T19:48:58.474Z,9.15
2023-04-17T19:51:25.066Z,10.52
2023-04-17T19:53:53.473Z,8.63
2023-04-17T19:56:20.176Z,9.40
2023-04-17T19:58:47.075Z,7.55
2023-04-17T20:01:13.670Z,8.13
2023-04-17T20:03:42.442Z,8.68
2023-04-17T20:06:09.236Z,9.10
2023-04-17T20:08:36.100Z,7.60
2023-04-17T20:11:04.336Z,7.80
2023-04-17T20:13:30.876Z,8.75
2023-04-17T20:15:57.493Z,7.50
2023-04-17T20:18:24.962Z,8.43
2023-04-17T20:20:51.595Z,7.68
2023-04-17T20:23:18.261Z,10.10
2023-04-17T20:25:45.051Z,8.43
2023-04-17T20:28:11.610Z,10.27
2023-04-17T20:30:38.209Z,8.32
2023-04-17T20:33:04.801Z,9.23
2023-04-17T20:35:31.463Z,7.80
2023-04-17T20:37:58.154Z,8.02
2023-04-17T20:40:24.677Z,10.38
2023-04-17T20:42:51.297Z,8.70
2023-04-17T20:45:17.962Z,9.68
2023-04-17T20:47:56.044Z,10.07
2023-04-17T20:50:23.686Z,9.52
2023-04-17T20:52:50.321Z,10.05
2023-04-17T20:55:18.785Z,11.57
2023-04-17T20:57:45.521Z,10.20
2023-04-17T21:00:12.501Z,10.20
2023-04-17T21:02:39.088Z,11.43
2023-04-17T21:05:07.113Z,10.63
2023-04-17T21:07:33.631Z,13.23
2023-04-17T21:10:00.147Z,15.25
2023-04-17T21:12:26.685Z,10.98
2023-04-17T21:14:53.226Z,12.77
2023-04-17T21:17:19.874Z,10.02
2023-04-17T21:19:47.219Z,11.85
2023-04-17T21:22:13.736Z,12.52
2023-04-17T21:24:40.385Z,11.70
2023-04-17T21:27:06.890Z,10.30
2023-04-17T21:29:33.470Z,18.02
2023-04-17T21:32:00.102Z,15.65
2023-04-17T21:34:26.827Z,13.63
2023-04-17T21:36:54.206Z,15.23
2023-04-17T21:39:21.791Z,16.40
2023-04-17T21:41:48.692Z,14.40
2023-04-17T21:44:15.499Z,16.50
2023-04-17T21:46:45.510Z,14.23
2023-04-17T21:49:12.367Z,14.25
2023-04-17T21:51:38.837Z,17.10
2023-04-17T21:54:05.438Z,14.82
2023-04-17T21:56:32.097Z,13.27
2023-04-17T21:58:58.628Z,14.05
2023-04-17T22:01:25.257Z,13.65
2023-04-17T22:03:51.790Z,14.23
2023-04-17T22:06:18.465Z,12.68
2023-04-17T22:08:45.090Z,12.32
2023-04-17T22:11:11.570Z,10.90
2023-04-17T22:13:38.171Z,13.38
2023-04-17T22:16:04.933Z,12.18
2023-04-17T22:18:31.465Z,10.45
2023-04-17T22:20:58.014Z,12.98
2023-04-17T22:23:24.590Z,12.45
2023-04-17T22:25:51.114Z,13.18
2023-04-17T22:28:17.714Z,12.63
2023-04-17T22:30:44.291Z,11.70
2023-04-17T22:33:10.825Z,11.75
2023-04-17T22:35:37.308Z,10.98
2023-04-17T22:38:03.799Z,17.27
2023-04-17T22:40:30.453Z,11.73
2023-04-17T22:42:56.930Z,13.30
2023-04-17T22:45:23.424Z,13.23
2023-04-17T22:47:49.935Z,12.02
2023-04-17T22:50:17.659Z,11.23
2023-04-17T22:52:44.345Z,12.35
2023-04-17T22:55:11.152Z,13.48
2023-04-17T22:57:37.649Z,13.07
2023-04-17T23:00:04.491Z,14.25
2023-04-17T23:02:31.289Z,12.50
2023-04-17T23:04:57.955Z,12.15
2023-04-17T23:07:24.515Z,11.13
2023-04-17T23:09:51.016Z,14.30
2023-04-17T23:12:17.591Z,16.42
2023-04-17T23:14:45.754Z,12.23
2023-04-17T23:17:12.295Z,15.45
2023-04-17T23:19:38.814Z,12.93
2023-04-17T23:22:06.835Z,15.27
2023-04-17T23:24:36.796Z,18.23
2023-04-17T23:27:03.301Z,14.45
2023-04-17T23:29:29.819Z,13.90
2023-04-17T23:31:56.268Z,15.68
2023-04-17T23:34:22.732Z,14.15
2023-04-17T23:36:49.226Z,12.82
2023-04-17T23:39:15.692Z,14.95
2023-04-17T23:41:42.672Z,14.20
2023-04-17T23:44:09.640Z,13.50
2023-04-17T23:46:36.587Z,11.95
2023-04-17T23:49:03.633Z,12.25
2023-04-17T23:51:30.406Z,12.98
2023-04-17T23:53:58.903Z,12.45
2023-04-17T23:56:26.010Z,13.50
2023-04-17T23:58:52.747Z,16.65
